CheckWX is a tool to help pilots better visualize weather data.  It is not intended as a substitute for an official pre-flight weather briefing.

21:19:59 UTC

KEZF METAR
Shannon Airport
Fredericksburg, Virginia, USA
Current

25 mins ago

KEZF 232055Z AUTO 16003KT 10SM CLR 23/21 A3001 RMK AO2 P0024 60024 T02290205
Observed
May-23 @ 20:55 UTC
Wind
  • 160° at 3 KTS
Visibility
10 SM
Flight Rules
VFR
Cloud Levels
  • Clear skies
Temperature
23°C / 73°F
Dewpoint
21°C / 70°F
Humidity
89%
Altimeter
30.01" Hg
Pressure
1016.22 hPa
Current Rain
0.24"
Previous

45 mins ago

KEZF 232035Z AUTO 17005KT 7SM -RA SCT008 SCT040 SCT055 22/18 A3000 RMK AO2 P0023 T02220184
Observed
May-23 @ 20:35 UTC
Wind
  • 170° at 5 KTS
Visibility
7 SM
Flight Rules
VFR
Conditions
Light Rain
Cloud Levels
  • Scattered at 800' AGL
  • Scattered at 4,000' AGL
  • Scattered at 5,500' AGL
Temperature
22°C / 72°F
Dewpoint
18°C / 64°F
Humidity
78%
Altimeter
30" Hg
Pressure
1015.92 hPa
Current Rain
0.23"
Previous

2 hours ago

KEZF 231915Z AUTO 19014G20KT 10SM SCT042 SCT049 31/22 A3002 RMK AO2 T03130217
Observed
May-23 @ 19:15 UTC
Wind
  • 190° at 14 KTS
  • Gusting to 20 KTS
Visibility
10 SM
Flight Rules
VFR
Cloud Levels
  • Scattered at 4,200' AGL
  • Scattered at 4,900' AGL
Temperature
31°C / 88°F
Dewpoint
22°C / 72°F
Heat Index
35°C / 95°F
Humidity
59%
Altimeter
30.02" Hg
Pressure
1016.62 hPa